map of TLI home
Great Circle Mapper logo
TLI - Location
Location
City:  Tolitoli, Indonesia
ICAO / IATA:WAMI / TLI

Details
Latitude:1°01'N (1.017)
Longitude:120°48'E (120.800)

Weather
TAF:WAMI 240500Z 2406/2418 27008KT 9000 SCT019
BECMG 2412/2414 09004KT

Related Locations
Nearby:
Farthest:SJCW: 12370 mi / 19907 km
Urucará [Jatapu], AM, BR

Find:

   beyond  
but within

Other Information
Maps:
NOTAMs:
Links:
Sources:

  
flag of Indonesia   

Sectional Chart

Flight Planning
at skyvector.com

Satellite Image

Google Maps Satellite View

 

Copyright © 2004-2014 Karl L. Swartz. All rights reserved.
The Great Circle Mapper name and logo are trademarks of the Great Circle Mapper.
All other trademarks mentioned herein belong to their respective owners.
Please see credits for attibutions and further copyright information.

  Follow gcmap on Facebook Follow gcmap on Twitter

hCard Microformat

Geo Microformat